sensor_id;sensor_type;location;lat;lon;timestamp;temperature;humidity
12303;DHT22;6214;48.012;7.862;2023-07-09T00:02:13;24.30;99.90
12303;DHT22;6214;48.012;7.862;2023-07-09T00:04:41;24.30;99.90
12303;DHT22;6214;48.012;7.862;2023-07-09T00:07:24;24.10;99.90
12303;DHT22;6214;48.012;7.862;2023-07-09T00:09:54;24.00;99.90
12303;DHT22;6214;48.012;7.862;2023-07-09T00:12:21;23.80;99.90
12303;DHT22;6214;48.012;7.862;2023-07-09T00:14:48;23.80;99.90
12303;DHT22;6214;48.012;7.862;2023-07-09T00:17:29;23.70;99.90
12303;DHT22;6214;48.012;7.862;2023-07-09T00:19:57;23.40;99.90
12303;DHT22;6214;48.012;7.862;2023-07-09T00:22:25;23.40;99.90
12303;DHT22;6214;48.012;7.862;2023-07-09T00:24:53;23.20;99.90
12303;DHT22;6214;48.012;7.862;2023-07-09T00:27:26;23.40;99.90
12303;DHT22;6214;48.012;7.862;2023-07-09T00:29:54;23.40;99.90
12303;DHT22;6214;48.012;7.862;2023-07-09T00:32:21;23.20;99.90
12303;DHT22;6214;48.012;7.862;2023-07-09T00:34:48;23.70;99.90
12303;DHT22;6214;48.012;7.862;2023-07-09T00:37:17;23.00;99.90
12303;DHT22;6214;48.012;7.862;2023-07-09T00:39:45;22.80;99.90
12303;DHT22;6214;48.012;7.862;2023-07-09T00:42:18;22.70;99.90
12303;DHT22;6214;48.012;7.862;2023-07-09T00:44:53;22.50;99.90
12303;DHT22;6214;48.012;7.862;2023-07-09T00:47:28;22.40;99.90
12303;DHT22;6214;48.012;7.862;2023-07-09T00:50:10;22.30;99.90
12303;DHT22;6214;48.012;7.862;2023-07-09T00:52:43;22.40;99.90
12303;DHT22;6214;48.012;7.862;2023-07-09T00:55:17;22.50;99.90
12303;DHT22;6214;48.012;7.862;2023-07-09T00:57:48;22.50;99.90
12303;DHT22;6214;48.012;7.862;2023-07-09T01:00:28;22.40;99.90
12303;DHT22;6214;48.012;7.862;2023-07-09T01:02:58;22.20;99.90
12303;DHT22;6214;48.012;7.862;2023-07-09T01:05:25;22.10;99.90
12303;DHT22;6214;48.012;7.862;2023-07-09T01:07:52;22.10;99.90
12303;DHT22;6214;48.012;7.862;2023-07-09T01:10:20;22.10;99.90
12303;DHT22;6214;48.012;7.862;2023-07-09T01:12:48;22.00;99.90
12303;DHT22;6214;48.012;7.862;2023-07-09T01:15:16;21.90;99.90
12303;DHT22;6214;48.012;7.862;2023-07-09T01:17:43;21.80;99.90
12303;DHT22;6214;48.012;7.862;2023-07-09T01:20:17;21.90;99.90
12303;DHT22;6214;48.012;7.862;2023-07-09T01:22:51;21.80;99.90
12303;DHT22;6214;48.012;7.862;2023-07-09T01:25:23;21.60;99.90
12303;DHT22;6214;48.012;7.862;2023-07-09T01:27:50;21.50;99.90
12303;DHT22;6214;48.012;7.862;2023-07-09T01:30:40;21.40;99.90
12303;DHT22;6214;48.012;7.862;2023-07-09T01:33:08;21.40;99.90
12303;DHT22;6214;48.012;7.862;2023-07-09T01:35:38;21.40;99.90
12303;DHT22;6214;48.012;7.862;2023-07-09T01:38:08;21.50;99.90
12303;DHT22;6214;48.012;7.862;2023-07-09T01:40:36;21.50;99.90
12303;DHT22;6214;48.012;7.862;2023-07-09T01:43:06;21.60;99.90
12303;DHT22;6214;48.012;7.862;2023-07-09T01:45:35;21.50;99.90
12303;DHT22;6214;48.012;7.862;2023-07-09T01:48:03;21.40;99.90
12303;DHT22;6214;48.012;7.862;2023-07-09T01:50:30;21.20;99.90
12303;DHT22;6214;48.012;7.862;2023-07-09T01:52:57;21.20;99.90
12303;DHT22;6214;48.012;7.862;2023-07-09T01:55:25;21.20;99.90
12303;DHT22;6214;48.012;7.862;2023-07-09T01:57:52;21.10;99.90
12303;DHT22;6214;48.012;7.862;2023-07-09T02:00:19;21.10;99.90
12303;DHT22;6214;48.012;7.862;2023-07-09T02:02:47;21.00;99.90
12303;DHT22;6214;48.012;7.862;2023-07-09T02:05:18;20.80;99.90
12303;DHT22;6214;48.012;7.862;2023-07-09T02:07:46;20.90;99.90
12303;DHT22;6214;48.012;7.862;2023-07-09T02:10:16;20.90;99.90
12303;DHT22;6214;48.012;7.862;2023-07-09T02:12:43;20.80;99.90
12303;DHT22;6214;48.012;7.862;2023-07-09T02:15:11;20.80;99.90
12303;DHT22;6214;48.012;7.862;2023-07-09T02:17:38;21.00;99.90
12303;DHT22;6214;48.012;7.862;2023-07-09T02:20:06;21.10;99.90
12303;DHT22;6214;48.012;7.862;2023-07-09T02:22:35;21.00;99.90
12303;DHT22;6214;48.012;7.862;2023-07-09T02:25:02;21.10;99.90
12303;DHT22;6214;48.012;7.862;2023-07-09T02:27:30;21.10;99.90
12303;DHT22;6214;48.012;7.862;2023-07-09T02:29:57;21.30;99.90
12303;DHT22;6214;48.012;7.862;2023-07-09T02:32:26;21.20;99.90
12303;DHT22;6214;48.012;7.862;2023-07-09T02:34:54;21.20;99.90
12303;DHT22;6214;48.012;7.862;2023-07-09T02:37:24;21.10;99.90
12303;DHT22;6214;48.012;7.862;2023-07-09T02:39:52;21.00;99.90
12303;DHT22;6214;48.012;7.862;2023-07-09T02:42:20;20.90;99.90
12303;DHT22;6214;48.012;7.862;2023-07-09T02:44:48;20.80;99.90
12303;DHT22;6214;48.012;7.862;2023-07-09T02:47:15;20.70;99.90
12303;DHT22;6214;48.012;7.862;2023-07-09T02:49:42;20.60;99.90
12303;DHT22;6214;48.012;7.862;2023-07-09T02:52:10;20.50;99.90
12303;DHT22;6214;48.012;7.862;2023-07-09T02:54:37;20.40;99.90
12303;DHT22;6214;48.012;7.862;2023-07-09T02:57:04;20.40;99.90
12303;DHT22;6214;48.012;7.862;2023-07-09T02:59:31;20.30;99.90
12303;DHT22;6214;48.012;7.862;2023-07-09T03:02:00;20.30;99.90
12303;DHT22;6214;48.012;7.862;2023-07-09T03:04:27;20.40;99.90
12303;DHT22;6214;48.012;7.862;2023-07-09T03:06:54;20.50;99.90
12303;DHT22;6214;48.012;7.862;2023-07-09T03:09:21;20.60;99.90
12303;DHT22;6214;48.012;7.862;2023-07-09T03:11:48;20.40;99.90
12303;DHT22;6214;48.012;7.862;2023-07-09T03:14:16;20.40;99.90
12303;DHT22;6214;48.012;7.862;2023-07-09T03:16:43;20.60;99.90
12303;DHT22;6214;48.012;7.862;2023-07-09T03:19:11;20.50;99.90
12303;DHT22;6214;48.012;7.862;2023-07-09T03:21:38;20.50;99.90
12303;DHT22;6214;48.012;7.862;2023-07-09T03:24:06;20.50;99.90
12303;DHT22;6214;48.012;7.862;2023-07-09T03:26:34;20.40;99.90
12303;DHT22;6214;48.012;7.862;2023-07-09T03:29:01;20.30;99.90
12303;DHT22;6214;48.012;7.862;2023-07-09T03:31:30;20.20;99.90
12303;DHT22;6214;48.012;7.862;2023-07-09T03:33:57;20.20;99.90
12303;DHT22;6214;48.012;7.862;2023-07-09T03:36:24;20.00;99.90
12303;DHT22;6214;48.012;7.862;2023-07-09T03:38:52;20.10;99.90
12303;DHT22;6214;48.012;7.862;2023-07-09T03:41:19;20.00;99.90
12303;DHT22;6214;48.012;7.862;2023-07-09T03:43:46;20.00;99.90
12303;DHT22;6214;48.012;7.862;2023-07-09T03:46:13;20.00;99.90
12303;DHT22;6214;48.012;7.862;2023-07-09T03:48:40;20.10;99.90
12303;DHT22;6214;48.012;7.862;2023-07-09T03:51:07;20.00;99.90
12303;DHT22;6214;48.012;7.862;2023-07-09T03:53:34;20.10;99.90
12303;DHT22;6214;48.012;7.862;2023-07-09T03:56:01;20.00;99.90
12303;DHT22;6214;48.012;7.862;2023-07-09T03:58:29;20.10;99.90
12303;DHT22;6214;48.012;7.862;2023-07-09T04:00:56;20.10;99.90
12303;DHT22;6214;48.012;7.862;2023-07-09T04:03:23;20.00;99.90
12303;DHT22;6214;48.012;7.862;2023-07-09T04:05:51;20.10;99.90
12303;DHT22;6214;48.012;7.862;2023-07-09T04:08:18;20.00;99.90
12303;DHT22;6214;48.012;7.862;2023-07-09T04:10:46;20.10;99.90
12303;DHT22;6214;48.012;7.862;2023-07-09T04:13:13;20.10;99.90
12303;DHT22;6214;48.012;7.862;2023-07-09T04:15:40;20.10;99.90
12303;DHT22;6214;48.012;7.862;2023-07-09T04:18:07;20.10;99.90
12303;DHT22;6214;48.012;7.862;2023-07-09T04:20:34;20.10;99.90
12303;DHT22;6214;48.012;7.862;2023-07-09T04:23:02;20.20;99.90
12303;DHT22;6214;48.012;7.862;2023-07-09T04:25:29;20.10;99.90
12303;DHT22;6214;48.012;7.862;2023-07-09T04:27:56;20.10;99.90
12303;DHT22;6214;48.012;7.862;2023-07-09T04:30:23;20.10;99.90
12303;DHT22;6214;48.012;7.862;2023-07-09T04:32:51;20.10;99.90
12303;DHT22;6214;48.012;7.862;2023-07-09T04:35:18;20.10;99.90
12303;DHT22;6214;48.012;7.862;2023-07-09T04:37:45;20.00;99.90
12303;DHT22;6214;48.012;7.862;2023-07-09T04:40:12;20.10;99.90
12303;DHT22;6214;48.012;7.862;2023-07-09T04:42:40;20.00;99.90
12303;DHT22;6214;48.012;7.862;2023-07-09T04:45:08;20.10;99.90
12303;DHT22;6214;48.012;7.862;2023-07-09T04:47:36;20.00;99.90
12303;DHT22;6214;48.012;7.862;2023-07-09T04:50:05;20.10;99.90
12303;DHT22;6214;48.012;7.862;2023-07-09T04:52:32;20.10;99.90
12303;DHT22;6214;48.012;7.862;2023-07-09T04:54:59;20.10;99.90
12303;DHT22;6214;48.012;7.862;2023-07-09T04:57:28;20.20;99.90
12303;DHT22;6214;48.012;7.862;2023-07-09T04:59:55;20.30;99.90
12303;DHT22;6214;48.012;7.862;2023-07-09T05:02:23;20.50;99.90
12303;DHT22;6214;48.012;7.862;2023-07-09T05:04:50;20.50;99.90
12303;DHT22;6214;48.012;7.862;2023-07-09T05:07:17;20.50;99.90
12303;DHT22;6214;48.012;7.862;2023-07-09T05:09:44;20.50;99.90
12303;DHT22;6214;48.012;7.862;2023-07-09T05:12:12;20.50;99.90
12303;DHT22;6214;48.012;7.862;2023-07-09T05:14:39;20.60;99.90
12303;DHT22;6214;48.012;7.862;2023-07-09T05:17:07;20.70;99.90
12303;DHT22;6214;48.012;7.862;2023-07-09T05:19:35;20.70;99.90
12303;DHT22;6214;48.012;7.862;2023-07-09T05:22:02;20.80;99.90
12303;DHT22;6214;48.012;7.862;2023-07-09T05:24:29;20.80;99.90
12303;DHT22;6214;48.012;7.862;2023-07-09T05:26:56;20.80;99.90
12303;DHT22;6214;48.012;7.862;2023-07-09T05:29:24;21.00;99.90
12303;DHT22;6214;48.012;7.862;2023-07-09T05:31:51;21.30;99.90
12303;DHT22;6214;48.012;7.862;2023-07-09T05:34:18;21.70;99.90
12303;DHT22;6214;48.012;7.862;2023-07-09T05:36:45;22.10;99.90
12303;DHT22;6214;48.012;7.862;2023-07-09T05:39:13;22.30;99.90
12303;DHT22;6214;48.012;7.862;2023-07-09T05:41:40;22.50;99.90
12303;DHT22;6214;48.012;7.862;2023-07-09T05:44:07;22.80;99.90
12303;DHT22;6214;48.012;7.862;2023-07-09T05:46:35;23.00;99.90
12303;DHT22;6214;48.012;7.862;2023-07-09T05:49:05;23.10;99.90
12303;DHT22;6214;48.012;7.862;2023-07-09T05:51:33;23.00;99.90
12303;DHT22;6214;48.012;7.862;2023-07-09T05:54:00;23.30;99.90
12303;DHT22;6214;48.012;7.862;2023-07-09T05:56:28;23.40;99.90
12303;DHT22;6214;48.012;7.862;2023-07-09T05:58:55;23.50;99.90
12303;DHT22;6214;48.012;7.862;2023-07-09T06:01:23;23.70;99.90
12303;DHT22;6214;48.012;7.862;2023-07-09T06:03:50;23.60;99.90
12303;DHT22;6214;48.012;7.862;2023-07-09T06:06:18;23.70;99.90
12303;DHT22;6214;48.012;7.862;2023-07-09T06:08:45;24.00;99.90
12303;DHT22;6214;48.012;7.862;2023-07-09T06:11:14;24.20;99.90
12303;DHT22;6214;48.012;7.862;2023-07-09T06:13:41;24.60;99.90
12303;DHT22;6214;48.012;7.862;2023-07-09T06:16:08;24.70;99.90
12303;DHT22;6214;48.012;7.862;2023-07-09T06:18:35;24.70;99.90
12303;DHT22;6214;48.012;7.862;2023-07-09T06:21:03;24.60;99.90
12303;DHT22;6214;48.012;7.862;2023-07-09T06:23:30;24.80;99.90
12303;DHT22;6214;48.012;7.862;2023-07-09T06:25:58;24.90;99.90
12303;DHT22;6214;48.012;7.862;2023-07-09T06:28:27;25.00;99.90
12303;DHT22;6214;48.012;7.862;2023-07-09T06:30:56;25.30;99.90
12303;DHT22;6214;48.012;7.862;2023-07-09T06:33:24;25.50;99.90
12303;DHT22;6214;48.012;7.862;2023-07-09T06:35:58;25.80;99.90
12303;DHT22;6214;48.012;7.862;2023-07-09T06:38:27;25.90;99.90
12303;DHT22;6214;48.012;7.862;2023-07-09T06:40:55;26.20;99.90
12303;DHT22;6214;48.012;7.862;2023-07-09T06:43:22;26.40;99.90
12303;DHT22;6214;48.012;7.862;2023-07-09T06:45:58;26.40;99.90
12303;DHT22;6214;48.012;7.862;2023-07-09T06:48:27;26.80;99.90
12303;DHT22;6214;48.012;7.862;2023-07-09T06:50:56;26.90;99.90
12303;DHT22;6214;48.012;7.862;2023-07-09T06:53:24;27.00;99.90
12303;DHT22;6214;48.012;7.862;2023-07-09T06:55:51;27.00;99.90
12303;DHT22;6214;48.012;7.862;2023-07-09T06:58:22;27.30;99.90
12303;DHT22;6214;48.012;7.862;2023-07-09T07:00:52;27.70;99.90
12303;DHT22;6214;48.012;7.862;2023-07-09T07:03:20;28.10;99.90
12303;DHT22;6214;48.012;7.862;2023-07-09T07:05:49;28.40;99.90
12303;DHT22;6214;48.012;7.862;2023-07-09T07:08:18;28.90;99.90
12303;DHT22;6214;48.012;7.862;2023-07-09T07:10:47;29.70;99.90
12303;DHT22;6214;48.012;7.862;2023-07-09T07:13:14;31.60;99.90
12303;DHT22;6214;48.012;7.862;2023-07-09T07:15:44;33.20;99.90
12303;DHT22;6214;48.012;7.862;2023-07-09T07:18:11;34.30;99.90
12303;DHT22;6214;48.012;7.862;2023-07-09T07:20:38;35.50;99.90
12303;DHT22;6214;48.012;7.862;2023-07-09T07:23:05;35.60;99.90
12303;DHT22;6214;48.012;7.862;2023-07-09T07:25:32;36.10;99.90
12303;DHT22;6214;48.012;7.862;2023-07-09T07:27:59;36.10;99.90
12303;DHT22;6214;48.012;7.862;2023-07-09T07:30:26;36.20;99.90
12303;DHT22;6214;48.012;7.862;2023-07-09T07:32:53;36.90;98.90
12303;DHT22;6214;48.012;7.862;2023-07-09T07:35:20;36.90;97.30
12303;DHT22;6214;48.012;7.862;2023-07-09T07:37:48;37.00;97.50
12303;DHT22;6214;48.012;7.862;2023-07-09T07:40:15;36.40;95.80
12303;DHT22;6214;48.012;7.862;2023-07-09T07:42:42;35.80;96.10
12303;DHT22;6214;48.012;7.862;2023-07-09T07:45:09;35.10;97.10
12303;DHT22;6214;48.012;7.862;2023-07-09T07:47:36;34.90;97.70
12303;DHT22;6214;48.012;7.862;2023-07-09T07:50:05;34.40;98.10
12303;DHT22;6214;48.012;7.862;2023-07-09T07:52:32;34.20;99.20
12303;DHT22;6214;48.012;7.862;2023-07-09T07:55:07;34.40;99.50
12303;DHT22;6214;48.012;7.862;2023-07-09T07:57:37;34.30;97.50
12303;DHT22;6214;48.012;7.862;2023-07-09T08:00:04;34.60;97.00
12303;DHT22;6214;48.012;7.862;2023-07-09T08:02:31;35.20;96.60
12303;DHT22;6214;48.012;7.862;2023-07-09T08:04:59;35.00;97.30
12303;DHT22;6214;48.012;7.862;2023-07-09T08:07:27;35.00;97.30
12303;DHT22;6214;48.012;7.862;2023-07-09T08:09:54;35.10;97.20
12303;DHT22;6214;48.012;7.862;2023-07-09T08:12:21;34.80;96.80
12303;DHT22;6214;48.012;7.862;2023-07-09T08:14:48;34.10;97.00
12303;DHT22;6214;48.012;7.862;2023-07-09T08:17:15;33.90;99.40
12303;DHT22;6214;48.012;7.862;2023-07-09T08:19:53;33.20;99.90
12303;DHT22;6214;48.012;7.862;2023-07-09T08:22:21;32.30;99.90
12303;DHT22;6214;48.012;7.862;2023-07-09T08:24:49;31.70;99.90
12303;DHT22;6214;48.012;7.862;2023-07-09T08:27:17;31.50;99.90
12303;DHT22;6214;48.012;7.862;2023-07-09T08:29:45;31.30;99.90
12303;DHT22;6214;48.012;7.862;2023-07-09T08:32:12;31.10;99.90
12303;DHT22;6214;48.012;7.862;2023-07-09T08:34:40;30.90;99.90
12303;DHT22;6214;48.012;7.862;2023-07-09T08:37:28;30.80;99.90
12303;DHT22;6214;48.012;7.862;2023-07-09T08:39:55;31.00;99.90
12303;DHT22;6214;48.012;7.862;2023-07-09T08:42:29;31.00;99.90
12303;DHT22;6214;48.012;7.862;2023-07-09T08:48:16;30.70;99.90
12303;DHT22;6214;48.012;7.862;2023-07-09T08:51:04;30.60;99.90
12303;DHT22;6214;48.012;7.862;2023-07-09T08:53:38;31.00;99.90
12303;DHT22;6214;48.012;7.862;2023-07-09T08:56:09;31.00;99.90
12303;DHT22;6214;48.012;7.862;2023-07-09T08:58:37;31.10;99.90
12303;DHT22;6214;48.012;7.862;2023-07-09T09:01:17;31.20;99.90
12303;DHT22;6214;48.012;7.862;2023-07-09T09:03:49;31.30;99.90
12303;DHT22;6214;48.012;7.862;2023-07-09T09:06:30;31.40;99.90
12303;DHT22;6214;48.012;7.862;2023-07-09T09:09:05;31.40;99.90
12303;DHT22;6214;48.012;7.862;2023-07-09T09:11:43;31.40;99.90
12303;DHT22;6214;48.012;7.862;2023-07-09T09:14:31;31.40;99.90
12303;DHT22;6214;48.012;7.862;2023-07-09T09:16:59;31.50;99.90
12303;DHT22;6214;48.012;7.862;2023-07-09T09:19:33;31.50;99.90
12303;DHT22;6214;48.012;7.862;2023-07-09T09:22:08;31.40;99.90
12303;DHT22;6214;48.012;7.862;2023-07-09T09:27:24;31.40;99.90
12303;DHT22;6214;48.012;7.862;2023-07-09T09:29:51;31.40;99.90
12303;DHT22;6214;48.012;7.862;2023-07-09T09:32:28;31.30;99.90
12303;DHT22;6214;48.012;7.862;2023-07-09T09:34:55;31.50;99.90
12303;DHT22;6214;48.012;7.862;2023-07-09T09:37:28;31.70;99.90
12303;DHT22;6214;48.012;7.862;2023-07-09T09:39:56;31.60;99.90
12303;DHT22;6214;48.012;7.862;2023-07-09T09:42:43;31.60;99.90
12303;DHT22;6214;48.012;7.862;2023-07-09T09:45:16;31.80;99.90
12303;DHT22;6214;48.012;7.862;2023-07-09T09:47:45;31.80;99.90
12303;DHT22;6214;48.012;7.862;2023-07-09T09:50:20;31.60;99.90
12303;DHT22;6214;48.012;7.862;2023-07-09T09:52:48;31.50;99.90
12303;DHT22;6214;48.012;7.862;2023-07-09T09:55:28;31.60;99.90
12303;DHT22;6214;48.012;7.862;2023-07-09T09:57:56;31.80;99.90
12303;DHT22;6214;48.012;7.862;2023-07-09T10:00:28;31.90;99.90
12303;DHT22;6214;48.012;7.862;2023-07-09T10:02:58;32.10;99.90
12303;DHT22;6214;48.012;7.862;2023-07-09T10:05:38;32.10;99.90
12303;DHT22;6214;48.012;7.862;2023-07-09T10:14:04;32.20;99.90
12303;DHT22;6214;48.012;7.862;2023-07-09T10:16:45;32.60;99.90
12303;DHT22;6214;48.012;7.862;2023-07-09T10:19:23;32.60;99.90
12303;DHT22;6214;48.012;7.862;2023-07-09T10:22:03;32.80;99.90
12303;DHT22;6214;48.012;7.862;2023-07-09T10:24:48;32.90;99.90
12303;DHT22;6214;48.012;7.862;2023-07-09T10:27:24;33.00;99.90
12303;DHT22;6214;48.012;7.862;2023-07-09T10:33:08;33.10;99.90
12303;DHT22;6214;48.012;7.862;2023-07-09T10:39:00;33.30;99.90
12303;DHT22;6214;48.012;7.862;2023-07-09T10:41:30;33.30;99.90
12303;DHT22;6214;48.012;7.862;2023-07-09T10:44:01;33.30;99.90
12303;DHT22;6214;48.012;7.862;2023-07-09T10:46:34;33.40;99.90
12303;DHT22;6214;48.012;7.862;2023-07-09T10:49:05;33.40;99.90
12303;DHT22;6214;48.012;7.862;2023-07-09T10:51:51;33.30;99.90
12303;DHT22;6214;48.012;7.862;2023-07-09T10:54:58;33.10;99.90
12303;DHT22;6214;48.012;7.862;2023-07-09T10:57:44;33.10;99.90
12303;DHT22;6214;48.012;7.862;2023-07-09T11:00:18;33.20;99.90
12303;DHT22;6214;48.012;7.862;2023-07-09T11:02:49;33.40;99.90
12303;DHT22;6214;48.012;7.862;2023-07-09T11:05:18;33.50;99.90
12303;DHT22;6214;48.012;7.862;2023-07-09T11:08:05;33.50;99.90
12303;DHT22;6214;48.012;7.862;2023-07-09T11:10:44;33.60;99.90
12303;DHT22;6214;48.012;7.862;2023-07-09T11:13:19;33.80;99.90
12303;DHT22;6214;48.012;7.862;2023-07-09T11:15:55;34.00;99.90
12303;DHT22;6214;48.012;7.862;2023-07-09T11:18:26;34.10;99.90
12303;DHT22;6214;48.012;7.862;2023-07-09T11:21:04;34.20;99.90
12303;DHT22;6214;48.012;7.862;2023-07-09T11:23:49;34.10;99.90
12303;DHT22;6214;48.012;7.862;2023-07-09T11:29:16;33.10;99.90
12303;DHT22;6214;48.012;7.862;2023-07-09T11:31:45;33.00;99.90
12303;DHT22;6214;48.012;7.862;2023-07-09T11:36:59;33.40;99.90
12303;DHT22;6214;48.012;7.862;2023-07-09T11:42:03;33.80;99.90
12303;DHT22;6214;48.012;7.862;2023-07-09T11:44:32;33.90;99.90
12303;DHT22;6214;48.012;7.862;2023-07-09T11:50:22;33.70;99.90
12303;DHT22;6214;48.012;7.862;2023-07-09T12:00:22;33.30;99.90
12303;DHT22;6214;48.012;7.862;2023-07-09T12:02:50;33.30;99.90
12303;DHT22;6214;48.012;7.862;2023-07-09T12:05:35;33.20;99.90
12303;DHT22;6214;48.012;7.862;2023-07-09T12:08:06;33.10;99.90
12303;DHT22;6214;48.012;7.862;2023-07-09T12:10:35;33.30;99.90
12303;DHT22;6214;48.012;7.862;2023-07-09T12:13:02;33.40;99.90
12303;DHT22;6214;48.012;7.862;2023-07-09T12:15:31;33.60;99.90
12303;DHT22;6214;48.012;7.862;2023-07-09T12:18:03;33.60;99.90
12303;DHT22;6214;48.012;7.862;2023-07-09T12:20:36;33.50;99.90
12303;DHT22;6214;48.012;7.862;2023-07-09T12:25:54;33.40;99.90
12303;DHT22;6214;48.012;7.862;2023-07-09T12:28:22;33.60;99.90
12303;DHT22;6214;48.012;7.862;2023-07-09T12:30:52;33.80;99.90
12303;DHT22;6214;48.012;7.862;2023-07-09T12:33:24;33.80;99.90
12303;DHT22;6214;48.012;7.862;2023-07-09T12:36:01;33.90;99.90
12303;DHT22;6214;48.012;7.862;2023-07-09T12:38:41;34.10;99.90
12303;DHT22;6214;48.012;7.862;2023-07-09T12:41:37;34.10;99.90
12303;DHT22;6214;48.012;7.862;2023-07-09T12:44:05;34.10;99.90
12303;DHT22;6214;48.012;7.862;2023-07-09T12:46:35;34.10;99.90
12303;DHT22;6214;48.012;7.862;2023-07-09T12:49:05;34.20;99.90
12303;DHT22;6214;48.012;7.862;2023-07-09T12:51:32;34.30;99.90
12303;DHT22;6214;48.012;7.862;2023-07-09T12:54:18;34.40;99.90
12303;DHT22;6214;48.012;7.862;2023-07-09T12:56:46;34.30;99.90
12303;DHT22;6214;48.012;7.862;2023-07-09T13:01:51;34.50;99.90
12303;DHT22;6214;48.012;7.862;2023-07-09T13:04:29;34.50;99.90
12303;DHT22;6214;48.012;7.862;2023-07-09T13:06:56;34.50;99.90
12303;DHT22;6214;48.012;7.862;2023-07-09T13:09:27;34.60;99.90
12303;DHT22;6214;48.012;7.862;2023-07-09T13:11:55;34.50;99.90
12303;DHT22;6214;48.012;7.862;2023-07-09T13:14:25;34.40;99.90
12303;DHT22;6214;48.012;7.862;2023-07-09T13:17:05;34.40;99.90
12303;DHT22;6214;48.012;7.862;2023-07-09T13:19:33;34.30;99.90
12303;DHT22;6214;48.012;7.862;2023-07-09T13:22:00;34.40;99.90
12303;DHT22;6214;48.012;7.862;2023-07-09T13:24:31;34.40;99.90
12303;DHT22;6214;48.012;7.862;2023-07-09T13:27:00;34.30;99.90
12303;DHT22;6214;48.012;7.862;2023-07-09T13:29:28;34.40;99.90
12303;DHT22;6214;48.012;7.862;2023-07-09T13:31:55;34.30;99.90
12303;DHT22;6214;48.012;7.862;2023-07-09T13:34:26;34.30;99.90
12303;DHT22;6214;48.012;7.862;2023-07-09T13:36:54;34.50;99.90
12303;DHT22;6214;48.012;7.862;2023-07-09T13:39:23;34.50;99.90
12303;DHT22;6214;48.012;7.862;2023-07-09T13:41:54;34.50;99.90
12303;DHT22;6214;48.012;7.862;2023-07-09T13:44:24;34.40;99.90
12303;DHT22;6214;48.012;7.862;2023-07-09T13:46:52;34.40;99.90
12303;DHT22;6214;48.012;7.862;2023-07-09T13:49:20;34.20;99.90
12303;DHT22;6214;48.012;7.862;2023-07-09T13:51:51;34.30;99.90
12303;DHT22;6214;48.012;7.862;2023-07-09T13:54:21;34.30;99.90
12303;DHT22;6214;48.012;7.862;2023-07-09T13:56:50;34.40;99.90
12303;DHT22;6214;48.012;7.862;2023-07-09T13:59:22;34.40;99.90
12303;DHT22;6214;48.012;7.862;2023-07-09T14:01:52;34.30;99.90
12303;DHT22;6214;48.012;7.862;2023-07-09T14:04:20;34.30;99.90
12303;DHT22;6214;48.012;7.862;2023-07-09T14:06:47;34.30;99.90
12303;DHT22;6214;48.012;7.862;2023-07-09T14:09:15;34.30;99.90
12303;DHT22;6214;48.012;7.862;2023-07-09T14:11:48;34.50;99.90
12303;DHT22;6214;48.012;7.862;2023-07-09T14:14:20;34.50;99.90
12303;DHT22;6214;48.012;7.862;2023-07-09T14:16:49;34.50;99.90
12303;DHT22;6214;48.012;7.862;2023-07-09T14:19:20;34.50;99.90
12303;DHT22;6214;48.012;7.862;2023-07-09T14:21:48;34.60;99.90
12303;DHT22;6214;48.012;7.862;2023-07-09T14:24:24;34.50;99.90
12303;DHT22;6214;48.012;7.862;2023-07-09T14:26:53;34.60;99.90
12303;DHT22;6214;48.012;7.862;2023-07-09T14:29:21;34.60;99.90
12303;DHT22;6214;48.012;7.862;2023-07-09T14:31:49;34.60;99.90
12303;DHT22;6214;48.012;7.862;2023-07-09T14:36:54;34.70;99.90
12303;DHT22;6214;48.012;7.862;2023-07-09T14:39:21;34.80;99.90
12303;DHT22;6214;48.012;7.862;2023-07-09T14:41:49;34.80;99.90
12303;DHT22;6214;48.012;7.862;2023-07-09T14:46:50;34.90;99.90
12303;DHT22;6214;48.012;7.862;2023-07-09T14:49:18;34.90;99.90
12303;DHT22;6214;48.012;7.862;2023-07-09T14:51:46;34.90;99.90
12303;DHT22;6214;48.012;7.862;2023-07-09T14:54:34;34.90;99.90
12303;DHT22;6214;48.012;7.862;2023-07-09T14:57:02;34.90;99.90
12303;DHT22;6214;48.012;7.862;2023-07-09T14:59:30;34.80;99.90
12303;DHT22;6214;48.012;7.862;2023-07-09T15:01:57;34.80;99.10
12303;DHT22;6214;48.012;7.862;2023-07-09T15:04:29;35.00;99.90
12303;DHT22;6214;48.012;7.862;2023-07-09T15:06:57;35.10;99.90
12303;DHT22;6214;48.012;7.862;2023-07-09T15:09:26;35.20;98.60
12303;DHT22;6214;48.012;7.862;2023-07-09T15:11:57;35.20;99.40
12303;DHT22;6214;48.012;7.862;2023-07-09T15:14:25;35.20;99.90
12303;DHT22;6214;48.012;7.862;2023-07-09T15:16:53;35.20;98.10
12303;DHT22;6214;48.012;7.862;2023-07-09T15:19:25;35.10;98.50
12303;DHT22;6214;48.012;7.862;2023-07-09T15:21:52;35.10;98.80
12303;DHT22;6214;48.012;7.862;2023-07-09T15:24:25;35.00;98.10
12303;DHT22;6214;48.012;7.862;2023-07-09T15:26:54;35.00;98.10
12303;DHT22;6214;48.012;7.862;2023-07-09T15:29:24;35.10;97.20
12303;DHT22;6214;48.012;7.862;2023-07-09T15:31:51;35.20;98.50
12303;DHT22;6214;48.012;7.862;2023-07-09T15:34:18;35.20;96.90
12303;DHT22;6214;48.012;7.862;2023-07-09T15:36:48;35.10;96.00
12303;DHT22;6214;48.012;7.862;2023-07-09T15:39:16;35.10;94.20
12303;DHT22;6214;48.012;7.862;2023-07-09T15:41:44;35.00;93.60
12303;DHT22;6214;48.012;7.862;2023-07-09T15:44:12;34.90;91.80
12303;DHT22;6214;48.012;7.862;2023-07-09T15:46:42;34.80;90.20
12303;DHT22;6214;48.012;7.862;2023-07-09T15:49:11;34.70;91.20
12303;DHT22;6214;48.012;7.862;2023-07-09T15:51:39;34.70;91.10
12303;DHT22;6214;48.012;7.862;2023-07-09T15:54:15;34.60;90.80
12303;DHT22;6214;48.012;7.862;2023-07-09T15:56:43;34.50;93.90
12303;DHT22;6214;48.012;7.862;2023-07-09T15:59:30;34.60;94.80
12303;DHT22;6214;48.012;7.862;2023-07-09T16:01:58;34.50;96.20
12303;DHT22;6214;48.012;7.862;2023-07-09T16:04:26;34.40;96.40
12303;DHT22;6214;48.012;7.862;2023-07-09T16:06:54;34.40;96.40
12303;DHT22;6214;48.012;7.862;2023-07-09T16:09:21;34.30;96.40
12303;DHT22;6214;48.012;7.862;2023-07-09T16:11:51;34.20;98.10
12303;DHT22;6214;48.012;7.862;2023-07-09T16:14:29;34.20;98.10
12303;DHT22;6214;48.012;7.862;2023-07-09T16:16:59;34.10;97.00
12303;DHT22;6214;48.012;7.862;2023-07-09T16:19:29;34.20;97.70
12303;DHT22;6214;48.012;7.862;2023-07-09T16:22:03;34.10;96.70
12303;DHT22;6214;48.012;7.862;2023-07-09T16:24:33;34.00;99.90
12303;DHT22;6214;48.012;7.862;2023-07-09T16:27:02;34.10;99.80
12303;DHT22;6214;48.012;7.862;2023-07-09T16:29:31;34.10;98.50
12303;DHT22;6214;48.012;7.862;2023-07-09T16:31:59;34.20;97.80
12303;DHT22;6214;48.012;7.862;2023-07-09T16:34:27;34.20;96.80
12303;DHT22;6214;48.012;7.862;2023-07-09T16:36:56;34.10;96.50
12303;DHT22;6214;48.012;7.862;2023-07-09T16:39:30;34.20;96.00
12303;DHT22;6214;48.012;7.862;2023-07-09T16:41:58;34.10;96.50
12303;DHT22;6214;48.012;7.862;2023-07-09T16:44:26;34.10;95.00
12303;DHT22;6214;48.012;7.862;2023-07-09T16:46:53;34.10;94.30
12303;DHT22;6214;48.012;7.862;2023-07-09T16:49:35;34.00;94.40
12303;DHT22;6214;48.012;7.862;2023-07-09T16:52:04;34.10;94.10